createdAt,value
2023-05-06T00:01:25.527Z,101519.19
2023-05-06T00:03:54.056Z,101518.00
2023-05-06T00:06:22.488Z,101519.91
2023-05-06T00:08:50.554Z,101517.75
2023-05-06T00:11:18.575Z,101512.84
2023-05-06T00:13:46.509Z,101510.78
2023-05-06T00:16:14.452Z,101516.38
2023-05-06T00:18:43.832Z,101520.06
2023-05-06T00:21:11.934Z,101509.69
2023-05-06T00:23:39.805Z,101502.25
2023-05-06T00:26:07.773Z,101502.44
2023-05-06T00:28:35.707Z,101506.91
2023-05-06T00:31:03.660Z,101512.94
2023-05-06T00:33:31.558Z,101508.72
2023-05-06T00:36:00.920Z,101503.38
2023-05-06T00:38:29.048Z,101495.19
2023-05-06T00:40:57.014Z,101488.13
2023-05-06T00:43:26.370Z,101486.06
2023-05-06T00:45:54.564Z,101487.53
2023-05-06T00:48:23.084Z,101471.97
2023-05-06T00:50:51.185Z,101458.59
2023-05-06T00:53:22.853Z,101456.38
2023-05-06T00:55:51.269Z,101454.03
2023-05-06T00:58:20.693Z,101453.56
2023-05-06T01:00:49.429Z,101448.59
2023-05-06T01:03:17.379Z,101449.97
2023-05-06T01:05:52.300Z,101459.69
2023-05-06T01:08:28.617Z,101446.53
2023-05-06T01:11:00.290Z,101444.78
2023-05-06T01:13:36.208Z,101443.03
2023-05-06T01:16:07.327Z,101443.31
2023-05-06T01:18:37.343Z,101440.28
2023-05-06T01:21:06.991Z,101435.72
2023-05-06T01:23:55.225Z,101436.28
2023-05-06T01:26:23.267Z,101430.03
2023-05-06T01:28:51.447Z,101432.44
2023-05-06T01:31:26.702Z,101439.28
2023-05-06T01:34:07.299Z,101435.81
2023-05-06T01:36:42.154Z,101437.59
2023-05-06T01:39:19.162Z,101435.38
2023-05-06T01:41:49.885Z,101428.97
2023-05-06T01:44:18.596Z,101424.34
2023-05-06T01:46:47.280Z,101428.13
2023-05-06T01:49:23.693Z,101431.53
2023-05-06T01:51:52.537Z,101442.56
2023-05-06T01:54:21.847Z,101437.66
2023-05-06T01:56:49.759Z,101432.88
2023-05-06T01:59:17.699Z,101428.84
2023-05-06T02:01:45.665Z,101424.91
2023-05-06T02:04:13.563Z,101427.13
2023-05-06T02:06:42.095Z,101426.44
2023-05-06T02:09:10.048Z,101423.84
2023-05-06T02:11:44.069Z,101426.88
2023-05-06T02:14:12.828Z,101431.44
2023-05-06T02:16:40.837Z,101430.00
2023-05-06T02:19:08.776Z,101425.81
2023-05-06T02:21:36.960Z,101428.50
2023-05-06T02:24:05.428Z,101430.22
2023-05-06T02:26:33.366Z,101433.66
2023-05-06T02:29:02.699Z,101433.97
2023-05-06T02:31:31.807Z,101440.78
2023-05-06T02:33:59.746Z,101440.28
2023-05-06T02:36:27.624Z,101442.25
2023-05-06T02:38:56.034Z,101444.69
2023-05-06T02:41:23.942Z,101443.84
2023-05-06T02:43:53.268Z,101449.63
2023-05-06T02:46:23.098Z,101446.19
2023-05-06T02:48:51.131Z,101440.41
2023-05-06T02:51:19.078Z,101446.88
2023-05-06T02:53:46.984Z,101441.91
2023-05-06T02:56:14.952Z,101442.75
2023-05-06T02:58:42.905Z,101438.28
2023-05-06T03:01:10.996Z,101426.75
2023-05-06T03:03:40.405Z,101424.91
2023-05-06T03:06:08.413Z,101414.50
2023-05-06T03:08:36.346Z,101423.69
2023-05-06T03:11:06.807Z,101425.91
2023-05-06T03:13:36.060Z,101426.16
2023-05-06T03:16:04.331Z,101426.41
2023-05-06T03:18:32.710Z,101438.94
2023-05-06T03:21:02.273Z,101447.03
2023-05-06T03:23:31.291Z,101442.88
2023-05-06T03:25:59.355Z,101446.50
2023-05-06T03:28:28.112Z,101442.38
2023-05-06T03:30:56.259Z,101441.50
2023-05-06T03:33:24.600Z,101445.53
2023-05-06T03:35:52.611Z,101443.03
2023-05-06T03:38:22.062Z,101441.28
2023-05-06T03:40:56.830Z,101436.22
2023-05-06T03:43:25.745Z,101434.84
2023-05-06T03:45:57.948Z,101429.06
2023-05-06T03:48:25.917Z,101429.72
2023-05-06T03:50:54.646Z,101427.66
2023-05-06T03:53:24.500Z,101420.00
2023-05-06T03:55:53.136Z,101424.81
2023-05-06T03:58:21.331Z,101414.22
2023-05-06T04:00:49.344Z,101407.56
2023-05-06T04:03:18.220Z,101410.00
2023-05-06T04:05:50.624Z,101408.25
2023-05-06T04:08:21.965Z,101406.72
2023-05-06T04:10:51.468Z,101414.88
2023-05-06T04:13:29.001Z,101412.91
2023-05-06T04:15:59.505Z,101422.22
2023-05-06T04:18:34.348Z,101418.94
2023-05-06T04:21:07.111Z,101425.69
2023-05-06T04:23:37.857Z,101421.38
2023-05-06T04:26:08.356Z,101425.56
2023-05-06T04:28:38.651Z,101425.00
2023-05-06T04:31:08.580Z,101436.78
2023-05-06T04:33:42.360Z,101439.06
2023-05-06T04:36:14.820Z,101438.47
2023-05-06T04:38:52.903Z,101439.25
2023-05-06T04:41:23.743Z,101446.41
2023-05-06T04:43:51.676Z,101440.63
2023-05-06T04:46:24.087Z,101433.13
2023-05-06T04:48:54.258Z,101446.75
2023-05-06T04:51:24.126Z,101449.53
2023-05-06T04:53:53.188Z,101447.81
2023-05-06T04:56:22.583Z,101447.06
2023-05-06T04:58:51.355Z,101450.66
2023-05-06T05:01:20.933Z,101456.88
2023-05-06T05:03:49.391Z,101451.66
2023-05-06T05:06:18.255Z,101454.34
2023-05-06T05:08:46.506Z,101462.75
2023-05-06T05:11:14.466Z,101463.41
2023-05-06T05:13:43.814Z,101468.38
2023-05-06T05:16:12.116Z,101464.03
2023-05-06T05:18:43.145Z,101464.69
2023-05-06T05:21:17.861Z,101470.59
2023-05-06T05:23:45.824Z,101466.31
2023-05-06T05:26:14.097Z,101469.97
2023-05-06T05:28:45.779Z,101476.19
2023-05-06T05:31:14.140Z,101469.56
2023-05-06T05:33:43.126Z,101475.53
2023-05-06T05:36:15.422Z,101471.91
2023-05-06T05:38:47.786Z,101470.53
2023-05-06T05:41:17.579Z,101472.34
2023-05-06T05:43:48.200Z,101461.63
2023-05-06T05:46:17.803Z,101465.91
2023-05-06T05:48:48.374Z,101467.44
2023-05-06T05:51:16.516Z,101460.34
2023-05-06T05:53:45.625Z,101459.59
2023-05-06T05:56:15.023Z,101468.09
2023-05-06T05:58:43.405Z,101466.78
2023-05-06T06:01:13.051Z,101465.03
2023-05-06T06:03:42.235Z,101472.13
2023-05-06T06:06:10.641Z,101474.25
2023-05-06T06:08:39.102Z,101470.84
2023-05-06T06:11:07.778Z,101474.16
2023-05-06T06:13:40.649Z,101480.28
2023-05-06T06:16:09.642Z,101483.69
2023-05-06T06:18:38.969Z,101493.34
2023-05-06T06:21:07.057Z,101495.59
2023-05-06T06:23:36.272Z,101505.69
2023-05-06T06:26:04.676Z,101506.00
2023-05-06T06:28:34.143Z,101506.63
2023-05-06T06:31:02.893Z,101504.72
2023-05-06T06:33:30.807Z,101509.41
2023-05-06T06:36:00.185Z,101500.69
2023-05-06T06:38:28.097Z,101498.13
2023-05-06T06:40:55.983Z,101491.41
2023-05-06T06:43:24.760Z,101496.09
2023-05-06T06:46:03.115Z,101492.28
2023-05-06T06:48:31.389Z,101487.34
2023-05-06T06:51:00.701Z,101491.00
2023-05-06T06:53:28.661Z,101499.03
2023-05-06T06:55:56.539Z,101492.44
2023-05-06T06:58:24.464Z,101503.75
2023-05-06T07:00:52.335Z,101492.69
2023-05-06T07:03:20.383Z,101495.44
2023-05-06T07:05:48.261Z,101502.53
2023-05-06T07:08:18.081Z,101501.28
2023-05-06T07:10:46.099Z,101501.53
2023-05-06T07:13:14.212Z,101499.75
2023-05-06T07:15:42.158Z,101509.19
2023-05-06T07:18:10.899Z,101506.31
2023-05-06T07:20:39.022Z,101507.44
2023-05-06T07:23:07.012Z,101496.53
2023-05-06T07:25:36.322Z,101510.06
2023-05-06T07:28:05.023Z,101506.25
2023-05-06T07:30:33.516Z,101506.56
2023-05-06T07:33:01.555Z,101501.91
2023-05-06T07:35:29.585Z,101505.88
2023-05-06T07:37:57.598Z,101507.50
2023-05-06T07:40:25.972Z,101503.41
2023-05-06T07:42:55.755Z,101520.13
2023-05-06T07:45:25.139Z,101516.59
2023-05-06T07:47:53.302Z,101522.06
2023-05-06T07:50:21.336Z,101524.44
2023-05-06T07:52:49.258Z,101528.69
2023-05-06T07:55:17.317Z,101516.72
2023-05-06T07:57:45.264Z,101521.22
2023-05-06T08:00:15.495Z,101530.19
2023-05-06T08:02:47.791Z,101524.81
2023-05-06T08:05:17.279Z,101527.84
2023-05-06T08:07:45.180Z,101527.00
2023-05-06T08:10:13.226Z,101533.75
2023-05-06T08:12:41.140Z,101536.88
2023-05-06T08:15:10.602Z,101541.13
2023-05-06T08:17:40.180Z,101546.59
2023-05-06T08:20:09.282Z,101541.34
2023-05-06T08:22:37.116Z,101547.50
2023-05-06T08:25:05.332Z,101549.25
2023-05-06T08:27:33.259Z,101553.31
2023-05-06T08:30:01.271Z,101554.50
2023-05-06T08:32:29.229Z,101542.22
2023-05-06T08:34:59.797Z,101562.13
2023-05-06T08:37:27.839Z,101566.44
2023-05-06T08:39:56.286Z,101562.25
2023-05-06T08:42:26.944Z,101567.81
2023-05-06T08:44:57.088Z,101573.72
2023-05-06T08:47:25.112Z,101571.56
2023-05-06T08:49:53.483Z,101577.78
2023-05-06T08:52:23.579Z,101580.69
2023-05-06T08:54:54.567Z,101584.53
2023-05-06T08:57:22.767Z,101585.25
2023-05-06T08:59:51.618Z,101579.09
2023-05-06T09:02:19.753Z,101587.66
2023-05-06T09:04:48.463Z,101594.94
2023-05-06T09:07:16.433Z,101586.47
2023-05-06T09:09:45.827Z,101587.63
2023-05-06T09:12:15.092Z,101585.31
2023-05-06T09:14:43.710Z,101591.53
2023-05-06T09:17:23.691Z,101591.31
2023-05-06T09:19:53.338Z,101603.50
2023-05-06T09:22:23.103Z,101599.44
2023-05-06T09:24:56.679Z,101606.81
2023-05-06T09:27:26.166Z,101595.81
2023-05-06T09:30:01.916Z,101599.13
2023-05-06T09:32:30.080Z,101596.91
2023-05-06T09:34:58.318Z,101603.97
2023-05-06T09:37:27.297Z,101600.09
2023-05-06T09:39:57.676Z,101593.78
2023-05-06T09:42:28.667Z,101595.81
2023-05-06T09:44:59.865Z,101590.78
2023-05-06T09:47:34.827Z,101591.41
2023-05-06T09:50:02.658Z,101588.94
2023-05-06T09:52:31.553Z,101600.84
2023-05-06T09:55:02.454Z,101596.25
2023-05-06T09:57:31.603Z,101597.97
2023-05-06T10:00:01.145Z,101605.03
2023-05-06T10:02:30.183Z,101606.22
2023-05-06T10:05:00.587Z,101608.03
2023-05-06T10:07:29.916Z,101607.97
2023-05-06T10:10:01.354Z,101600.50
2023-05-06T10:12:30.227Z,101606.31
2023-05-06T10:14:58.345Z,101617.16
2023-05-06T10:21:21.970Z,101631.09
2023-05-06T10:23:56.445Z,101621.38
2023-05-06T10:26:55.883Z,101621.09
2023-05-06T10:29:27.244Z,101622.63
2023-05-06T10:31:56.450Z,101609.41
2023-05-06T10:34:26.272Z,101618.31
2023-05-06T10:36:57.976Z,101619.84
2023-05-06T10:39:26.952Z,101609.31
2023-05-06T10:41:56.230Z,101621.97
2023-05-06T10:44:57.385Z,101628.63
2023-05-06T10:47:25.450Z,101629.53
2023-05-06T10:50:21.005Z,101621.13
2023-05-06T10:52:51.374Z,101619.81
2023-05-06T10:55:30.760Z,101624.34
2023-05-06T10:58:04.344Z,101625.63
2023-05-06T11:00:32.724Z,101629.19
2023-05-06T11:03:03.842Z,101629.28
2023-05-06T11:05:31.908Z,101616.19
2023-05-06T11:08:10.084Z,101620.25
2023-05-06T11:10:38.347Z,101621.13
2023-05-06T11:13:26.244Z,101628.72
2023-05-06T11:15:54.974Z,101627.69
2023-05-06T11:18:44.966Z,101642.09
2023-05-06T11:21:41.040Z,101644.03
2023-05-06T11:24:10.651Z,101643.00
2023-05-06T11:26:40.789Z,101650.00
2023-05-06T11:29:10.368Z,101649.16
2023-05-06T11:31:43.533Z,101642.66
2023-05-06T11:34:15.325Z,101639.56
2023-05-06T11:36:50.860Z,101647.59
2023-05-06T11:39:18.985Z,101654.94
2023-05-06T11:41:46.918Z,101655.75
2023-05-06T11:44:29.779Z,101658.53
2023-05-06T11:46:59.181Z,101664.22
2023-05-06T11:49:27.957Z,101667.56
2023-05-06T11:51:57.065Z,101668.25
2023-05-06T11:54:27.131Z,101668.41
2023-05-06T11:56:57.231Z,101668.06
2023-05-06T11:59:34.209Z,101673.34
2023-05-06T12:02:03.340Z,101683.66
2023-05-06T12:04:39.142Z,101682.97
2023-05-06T12:07:07.998Z,101686.97
2023-05-06T12:09:37.130Z,101685.34
2023-05-06T12:12:06.985Z,101684.72
2023-05-06T12:14:36.594Z,101691.31
2023-05-06T12:17:05.405Z,101694.38
2023-05-06T12:19:33.678Z,101697.06
2023-05-06T12:22:15.690Z,101704.34
2023-05-06T12:24:43.651Z,101712.22
2023-05-06T12:27:11.647Z,101704.66
2023-05-06T12:29:41.023Z,101716.47
2023-05-06T12:32:10.749Z,101721.25
2023-05-06T12:34:39.734Z,101714.19
2023-05-06T12:37:08.561Z,101717.31
2023-05-06T12:39:37.076Z,101719.16
2023-05-06T12:42:05.259Z,101730.22
2023-05-06T12:44:37.581Z,101728.72
2023-05-06T12:47:08.831Z,101729.44
2023-05-06T12:49:47.914Z,101733.38
2023-05-06T12:52:16.689Z,101733.72
2023-05-06T12:54:44.940Z,101740.28
2023-05-06T12:57:13.217Z,101744.16
2023-05-06T12:59:41.543Z,101741.91
2023-05-06T13:02:11.119Z,101740.22
2023-05-06T13:04:39.384Z,101748.06
2023-05-06T13:07:07.379Z,101746.47
2023-05-06T13:09:35.365Z,101739.06
2023-05-06T13:12:04.580Z,101753.69
2023-05-06T13:14:32.522Z,101747.16
2023-05-06T13:17:04.723Z,101745.00
2023-05-06T13:19:34.261Z,101745.56
2023-05-06T13:22:02.813Z,101747.16
2023-05-06T13:24:30.959Z,101748.09
2023-05-06T13:27:00.727Z,101748.31
2023-05-06T13:29:29.478Z,101754.31
2023-05-06T13:31:57.683Z,101753.88
2023-05-06T13:34:26.046Z,101750.00
2023-05-06T13:36:56.508Z,101746.19
2023-05-06T13:39:24.999Z,101746.09
2023-05-06T13:41:54.100Z,101753.56
2023-05-06T13:44:24.471Z,101753.25
2023-05-06T13:46:52.533Z,101747.75
2023-05-06T13:49:20.677Z,101747.81
2023-05-06T13:51:48.885Z,101740.38
2023-05-06T13:54:18.329Z,101746.09
2023-05-06T13:56:46.542Z,101740.72
2023-05-06T13:59:14.427Z,101744.00
2023-05-06T14:01:43.102Z,101739.38
2023-05-06T14:04:11.103Z,101750.34
2023-05-06T14:06:39.078Z,101749.22
2023-05-06T14:09:07.079Z,101747.88
2023-05-06T14:11:36.340Z,101756.47
2023-05-06T14:14:04.484Z,101755.09
2023-05-06T14:16:32.496Z,101751.06
2023-05-06T14:19:00.705Z,101746.81
2023-05-06T14:21:28.617Z,101754.84
2023-05-06T14:23:56.930Z,101749.50
2023-05-06T14:26:25.072Z,101754.28
2023-05-06T14:28:54.487Z,101757.31
2023-05-06T14:31:23.407Z,101753.09
2023-05-06T14:33:51.360Z,101760.84
2023-05-06T14:36:19.953Z,101751.56
2023-05-06T14:38:47.869Z,101745.84
2023-05-06T14:41:15.745Z,101746.34
2023-05-06T14:43:43.602Z,101756.44
2023-05-06T14:46:14.666Z,101752.41
2023-05-06T14:48:43.495Z,101751.09
2023-05-06T14:51:11.449Z,101752.47
2023-05-06T14:53:39.370Z,101754.50
2023-05-06T14:56:09.513Z,101766.53
2023-05-06T14:58:37.502Z,101777.06
2023-05-06T15:01:05.903Z,101774.38
2023-05-06T15:03:36.293Z,101773.66
2023-05-06T15:06:04.548Z,101773.13
2023-05-06T15:08:32.658Z,101783.25
2023-05-06T15:11:03.073Z,101783.75
2023-05-06T15:13:31.891Z,101789.88
2023-05-06T15:15:59.797Z,101785.28
2023-05-06T15:18:27.656Z,101784.25
2023-05-06T15:20:58.759Z,101790.22
2023-05-06T15:23:26.668Z,101791.69
2023-05-06T15:25:54.728Z,101791.56
2023-05-06T15:28:24.582Z,101795.75
2023-05-06T15:30:52.864Z,101794.81
2023-05-06T15:33:20.780Z,101788.78
2023-05-06T15:35:48.647Z,101789.78
2023-05-06T15:38:17.897Z,101793.28
2023-05-06T15:40:51.084Z,101785.78
2023-05-06T15:43:23.773Z,101779.56
2023-05-06T15:46:17.504Z,101778.53
2023-05-06T15:48:45.772Z,101784.38
2023-05-06T15:51:13.637Z,101778.44
2023-05-06T15:53:43.349Z,101788.69
2023-05-06T15:56:18.051Z,101789.72
2023-05-06T15:58:46.761Z,101790.38
2023-05-06T16:01:14.790Z,101789.84
2023-05-06T16:03:43.004Z,101791.00
2023-05-06T16:06:11.989Z,101791.81
2023-05-06T16:08:40.074Z,101800.88
2023-05-06T16:11:09.461Z,101793.75
2023-05-06T16:13:37.505Z,101794.50
2023-05-06T16:16:06.381Z,101799.66
2023-05-06T16:18:34.915Z,101802.78
2023-05-06T16:21:02.829Z,101808.50
2023-05-06T16:23:30.792Z,101804.34
2023-05-06T16:26:32.218Z,101803.66
2023-05-06T16:29:06.722Z,101806.72
2023-05-06T16:31:35.077Z,101806.97
2023-05-06T16:34:02.959Z,101816.34
2023-05-06T16:36:31.500Z,101822.16
2023-05-06T16:38:59.482Z,101822.63
2023-05-06T16:41:28.698Z,101812.34
2023-05-06T16:43:56.577Z,101816.69
2023-05-06T16:46:24.788Z,101810.66
2023-05-06T16:48:53.836Z,101806.06
2023-05-06T16:51:21.993Z,101816.66
2023-05-06T16:53:50.155Z,101813.50
2023-05-06T16:56:18.142Z,101816.31
2023-05-06T16:58:47.399Z,101815.88
2023-05-06T17:01:15.303Z,101818.50
2023-05-06T17:03:43.282Z,101815.75
2023-05-06T17:06:11.506Z,101815.50
2023-05-06T17:08:39.595Z,101821.19
2023-05-06T17:11:08.433Z,101826.34
2023-05-06T17:13:36.430Z,101832.59
2023-05-06T17:16:06.096Z,101836.31
2023-05-06T17:18:34.055Z,101840.25
2023-05-06T17:21:02.149Z,101844.06
2023-05-06T17:23:30.344Z,101849.16
2023-05-06T17:25:58.294Z,101854.50
2023-05-06T17:28:26.294Z,101850.47
2023-05-06T17:30:54.233Z,101843.13
2023-05-06T17:33:23.485Z,101847.09
2023-05-06T17:35:51.430Z,101846.41
2023-05-06T17:38:19.326Z,101837.69
2023-05-06T17:40:47.247Z,101850.91
2023-05-06T17:43:15.419Z,101845.31
2023-05-06T17:45:43.331Z,101843.03
2023-05-06T17:48:11.357Z,101839.03
2023-05-06T17:50:40.846Z,101841.06
2023-05-06T17:53:08.692Z,101844.56
2023-05-06T17:55:36.866Z,101852.56
2023-05-06T17:58:04.816Z,101857.81
2023-05-06T18:00:33.004Z,101855.00
2023-05-06T18:03:00.999Z,101844.94
2023-05-06T18:05:29.233Z,101844.41
2023-05-06T18:07:58.675Z,101850.16
2023-05-06T18:10:26.920Z,101856.09
2023-05-06T18:12:55.486Z,101854.94
2023-05-06T18:15:23.580Z,101868.47
2023-05-06T18:17:51.680Z,101864.47
2023-05-06T18:20:19.751Z,101868.50
2023-05-06T18:22:47.656Z,101863.13
2023-05-06T18:25:16.983Z,101868.19
2023-05-06T18:27:44.890Z,101874.31
2023-05-06T18:30:13.235Z,101871.28
2023-05-06T18:32:41.117Z,101880.88
2023-05-06T18:35:10.889Z,101872.50
2023-05-06T18:37:39.228Z,101866.47
2023-05-06T18:40:09.654Z,101880.13
2023-05-06T18:42:38.959Z,101884.06
2023-05-06T18:45:08.540Z,101883.47
2023-05-06T18:47:37.979Z,101889.03
2023-05-06T18:50:06.794Z,101891.41
2023-05-06T18:52:36.094Z,101894.00
2023-05-06T18:55:05.122Z,101891.78
2023-05-06T18:57:33.373Z,101897.94
2023-05-06T19:00:02.701Z,101895.34
2023-05-06T19:02:30.679Z,101892.56
2023-05-06T19:04:58.579Z,101899.63
2023-05-06T19:07:26.509Z,101897.47
2023-05-06T19:09:54.953Z,101902.03
2023-05-06T19:12:23.240Z,101915.13
2023-05-06T19:14:51.189Z,101896.75
2023-05-06T19:17:20.730Z,101906.22
2023-05-06T19:19:49.120Z,101906.81
2023-05-06T19:22:17.318Z,101922.03
2023-05-06T19:24:45.302Z,101919.97
2023-05-06T19:27:13.223Z,101921.66
2023-05-06T19:29:41.111Z,101906.50
2023-05-06T19:32:09.636Z,101915.22
2023-05-06T19:34:38.878Z,101909.28
2023-05-06T19:37:06.735Z,101910.44
2023-05-06T19:39:34.604Z,101915.59
2023-05-06T19:42:02.515Z,101912.56
2023-05-06T19:44:30.433Z,101910.44
2023-05-06T19:46:58.370Z,101923.03
2023-05-06T19:49:26.246Z,101917.25
2023-05-06T19:51:55.443Z,101909.47
2023-05-06T19:54:23.309Z,101906.81
2023-05-06T19:56:51.256Z,101911.22
2023-05-06T19:59:19.165Z,101913.97
2023-05-06T20:01:48.724Z,101914.63
2023-05-06T20:04:16.740Z,101909.28
2023-05-06T20:06:44.599Z,101915.28
2023-05-06T20:09:13.922Z,101915.38
2023-05-06T20:11:41.995Z,101916.44
2023-05-06T20:14:10.051Z,101933.66
2023-05-06T20:16:38.916Z,101934.69
2023-05-06T20:19:07.754Z,101929.06
2023-05-06T20:21:35.700Z,101931.91
2023-05-06T20:24:03.647Z,101921.25
2023-05-06T20:26:32.973Z,101936.06
2023-05-06T20:29:01.489Z,101933.47
2023-05-06T20:31:29.480Z,101945.38
2023-05-06T20:33:57.383Z,101945.47
2023-05-06T20:36:26.803Z,101940.66
2023-05-06T20:38:54.724Z,101930.03
2023-05-06T20:41:22.669Z,101921.13
2023-05-06T20:43:53.885Z,101938.66
2023-05-06T20:46:21.876Z,101945.63
2023-05-06T20:48:51.417Z,101934.72
2023-05-06T20:51:19.604Z,101924.66
2023-05-06T20:53:47.469Z,101940.72
2023-05-06T20:56:20.549Z,101939.59
2023-05-06T20:58:48.809Z,101949.88
2023-05-06T21:01:18.196Z,101948.59
2023-05-06T21:03:47.229Z,101944.84
2023-05-06T21:06:15.814Z,101948.34
2023-05-06T21:08:43.947Z,101946.25
2023-05-06T21:11:11.878Z,101948.75
2023-05-06T21:13:40.747Z,101947.25
2023-05-06T21:16:09.133Z,101941.19
2023-05-06T21:18:38.387Z,101949.00
2023-05-06T21:21:06.339Z,101941.81
2023-05-06T21:23:35.324Z,101941.25
2023-05-06T21:26:03.427Z,101941.41
2023-05-06T21:28:31.522Z,101941.13
2023-05-06T21:30:59.511Z,101952.03
2023-05-06T21:33:27.482Z,101943.94
2023-05-06T21:35:56.807Z,101948.97
2023-05-06T21:38:24.777Z,101942.28
2023-05-06T21:40:52.749Z,101932.25
2023-05-06T21:43:20.742Z,101945.31
2023-05-06T21:45:48.637Z,101944.25
2023-05-06T21:48:16.615Z,101947.28
2023-05-06T21:50:44.823Z,101952.38
2023-05-06T21:53:14.150Z,101945.22
2023-05-06T21:55:42.126Z,101946.94
2023-05-06T21:58:10.034Z,101941.28
2023-05-06T22:00:38.038Z,101944.41
2023-05-06T22:03:06.038Z,101948.09
2023-05-06T22:05:34.073Z,101945.72
2023-05-06T22:08:01.984Z,101948.81
2023-05-06T22:10:31.422Z,101948.91
2023-05-06T22:12:59.411Z,101949.47
2023-05-06T22:15:27.386Z,101946.13
2023-05-06T22:17:55.349Z,101950.06
2023-05-06T22:20:23.862Z,101941.16
2023-05-06T22:22:52.524Z,101947.16
2023-05-06T22:25:20.751Z,101946.97
2023-05-06T22:27:50.113Z,101952.28
2023-05-06T22:30:18.170Z,101955.19
2023-05-06T22:32:46.486Z,101968.25
2023-05-06T22:35:14.642Z,101952.97
2023-05-06T22:37:42.693Z,101956.31
2023-05-06T22:40:11.815Z,101963.03
2023-05-06T22:42:39.752Z,101967.03
2023-05-06T22:45:11.110Z,101959.94
2023-05-06T22:47:39.217Z,101958.44
2023-05-06T22:50:08.936Z,101961.44
2023-05-06T22:52:36.854Z,101965.66
2023-05-06T22:55:05.830Z,101967.25
2023-05-06T22:57:33.785Z,101958.50
2023-05-06T23:00:01.704Z,101961.88
2023-05-06T23:02:31.010Z,101970.75
2023-05-06T23:04:59.370Z,101972.03
2023-05-06T23:07:27.262Z,101974.59
2023-05-06T23:09:55.098Z,101972.50
2023-05-06T23:12:22.970Z,101973.34
2023-05-06T23:14:50.891Z,101972.84
2023-05-06T23:17:18.741Z,101967.81
2023-05-06T23:19:47.961Z,101977.19
2023-05-06T23:22:15.770Z,101980.22
2023-05-06T23:24:43.644Z,101968.34
2023-05-06T23:27:11.602Z,101975.44
2023-05-06T23:29:39.466Z,101965.41
2023-05-06T23:32:07.857Z,101963.03
2023-05-06T23:34:35.778Z,101971.97
2023-05-06T23:37:05.016Z,101970.75
2023-05-06T23:39:32.920Z,101959.28
2023-05-06T23:42:02.198Z,101969.94
2023-05-06T23:44:30.220Z,101969.88
2023-05-06T23:46:58.229Z,101974.66
2023-05-06T23:49:26.147Z,101984.09
2023-05-06T23:51:53.962Z,101970.00
2023-05-06T23:54:23.255Z,101965.63
2023-05-06T23:56:51.455Z,101967.59
2023-05-06T23:59:19.323Z,101967.91
